Bushmills, United Kingdom
Current Conditions -  °F | °C
As of 12:50 PM on Tuesday 21 Oct 2014 (Local Time) from EGAE Reporting Station
Rain Showers Rain Showers  
Wind Chill: 10°   Ceiling: Unl
Heat Index: 10°   Visibility: 6mi
Dew Point:   Wind: 29mph
Humidity: 66%   Direction: 310°NW
Pressure: 29.77"   Gusts: 47mph
Location:  55.2°N, 6.52°W
Report Text: EGAE 211150Z 31025G41KT 9000 -SHRA FEW020CB SCT036 10/04 Q1008
Loading
Personal Weather Stations






























Interactive Weather Map
Tropical Storm Tracking
New forecast layout! Learn more

10-Day Weather Forecast

Advertisements
Track Severe Weather on mobile